createdAt,value
2023-03-14T00:03:08.219Z,16.75
2023-03-14T00:06:48.833Z,16.75
2023-03-14T00:10:30.516Z,16.75
2023-03-14T00:14:11.515Z,16.687
2023-03-14T00:17:52.775Z,16.687
2023-03-14T00:21:33.965Z,16.687
2023-03-14T00:25:14.761Z,16.687
2023-03-14T00:28:55.650Z,16.625
2023-03-14T00:32:37.346Z,16.625
2023-03-14T00:36:18.537Z,16.625
2023-03-14T00:39:59.345Z,16.625
2023-03-14T00:43:40.364Z,16.625
2023-03-14T00:47:24.123Z,16.625
2023-03-14T00:51:05.207Z,16.625
2023-03-14T00:54:46.065Z,16.562
2023-03-14T00:58:26.611Z,16.562
2023-03-14T01:03:07.257Z,16.562
2023-03-14T01:06:48.459Z,16.562
2023-03-14T01:10:29.481Z,16.562
2023-03-14T01:14:10.016Z,16.562
2023-03-14T01:17:50.874Z,16.562
2023-03-14T01:21:32.280Z,16.562
2023-03-14T01:25:13.110Z,16.562
2023-03-14T01:28:53.914Z,16.5
2023-03-14T01:32:35.328Z,16.5
2023-03-14T01:36:16.274Z,16.5
2023-03-14T01:40:00.034Z,16.5
2023-03-14T01:43:41.097Z,16.5
2023-03-14T01:47:22.359Z,16.5
2023-03-14T01:51:03.143Z,16.5
2023-03-14T01:54:43.946Z,16.437
2023-03-14T01:58:25.033Z,16.437
2023-03-14T02:03:06.890Z,16.437
2023-03-14T02:06:47.951Z,16.437
2023-03-14T02:10:28.838Z,16.437
2023-03-14T02:14:09.730Z,16.437
2023-03-14T02:17:51.332Z,16.437
2023-03-14T02:21:32.188Z,16.437
2023-03-14T02:25:12.739Z,16.375
2023-03-14T02:28:53.602Z,16.375
2023-03-14T02:32:34.521Z,16.375
2023-03-14T02:36:16.061Z,16.375
2023-03-14T02:39:56.783Z,16.375
2023-03-14T02:43:37.619Z,16.375
2023-03-14T02:47:19.193Z,16.312
2023-03-14T02:51:00.415Z,16.312
2023-03-14T02:54:40.866Z,16.312
2023-03-14T02:58:21.373Z,16.312
2023-03-14T03:03:08.202Z,16.312
2023-03-14T03:06:49.221Z,16.312
2023-03-14T03:10:29.839Z,16.312
2023-03-14T03:14:10.554Z,16.312
2023-03-14T03:17:51.436Z,16.312
2023-03-14T03:21:32.652Z,16.312
2023-03-14T03:25:13.623Z,16.312
2023-03-14T03:28:54.466Z,16.25
2023-03-14T03:32:35.935Z,16.25
2023-03-14T03:36:17.602Z,16.25
2023-03-14T03:39:58.636Z,16.25
2023-03-14T03:43:39.221Z,16.25
2023-03-14T03:47:19.964Z,16.25
2023-03-14T03:51:00.516Z,16.25
2023-03-14T03:54:57.313Z,16.25
2023-03-14T03:58:38.362Z,16.25
2023-03-14T04:03:09.025Z,16.25
2023-03-14T04:06:51.895Z,16.187
2023-03-14T04:10:32.988Z,16.187
2023-03-14T04:14:14.369Z,16.187
2023-03-14T04:17:55.676Z,16.187
2023-03-14T04:21:36.185Z,16.187
2023-03-14T04:25:17.317Z,16.187
2023-03-14T04:28:58.637Z,16.187
2023-03-14T04:32:42.401Z,16.187
2023-03-14T04:36:24.435Z,16.125
2023-03-14T04:40:08.741Z,16.125
2023-03-14T04:43:49.716Z,16.125
2023-03-14T04:47:31.050Z,16.125
2023-03-14T04:51:11.629Z,16.125
2023-03-14T04:54:53.977Z,16.125
2023-03-14T04:58:34.663Z,16.125
2023-03-14T05:03:08.421Z,16.125
2023-03-14T05:08:39.208Z,16.125
2023-03-14T05:12:20.657Z,16.062
2023-03-14T05:16:02.246Z,16.062
2023-03-14T05:19:44.326Z,16.062
2023-03-14T05:23:25.809Z,16.062
2023-03-14T05:27:07.496Z,16.062
2023-03-14T05:30:48.237Z,16.062
2023-03-14T05:34:30.380Z,16.062
2023-03-14T05:38:12.560Z,16.062
2023-03-14T05:41:53.304Z,16.062
2023-03-14T05:45:35.552Z,16.062
2023-03-14T05:49:17.348Z,16.062
2023-03-14T05:52:58.145Z,16.062
2023-03-14T05:56:41.377Z,16.0
2023-03-14T06:03:07.756Z,16.0
2023-03-14T06:06:49.307Z,16.0
2023-03-14T06:10:30.632Z,16.0
2023-03-14T06:14:12.116Z,16.0
2023-03-14T06:17:53.575Z,16.0
2023-03-14T06:21:34.841Z,16.0
2023-03-14T06:25:16.146Z,16.0
2023-03-14T06:28:58.252Z,16.0
2023-03-14T06:32:40.130Z,16.0
2023-03-14T06:36:21.736Z,16.062
2023-03-14T06:40:04.774Z,16.062
2023-03-14T06:43:45.535Z,16.062
2023-03-14T06:47:26.798Z,16.0
2023-03-14T06:51:07.689Z,16.0
2023-03-14T06:54:48.864Z,16.0
2023-03-14T06:58:30.313Z,16.0
2023-03-14T07:03:26.329Z,16.0
2023-03-14T07:07:07.760Z,16.0
2023-03-14T07:10:50.548Z,16.0
2023-03-14T07:14:31.761Z,16.0
2023-03-14T07:18:14.941Z,16.0
2023-03-14T07:21:56.404Z,16.0
2023-03-14T07:25:36.724Z,15.937
2023-03-14T07:29:17.479Z,15.937
2023-03-14T07:32:59.633Z,15.937
2023-03-14T07:36:41.403Z,15.937
2023-03-14T07:40:22.129Z,15.937
2023-03-14T07:44:03.017Z,15.937
2023-03-14T07:47:51.603Z,15.937
2023-03-14T07:51:32.734Z,15.937
2023-03-14T07:55:13.806Z,15.937
2023-03-14T07:58:54.666Z,15.937
2023-03-14T08:03:11.143Z,15.937
2023-03-14T08:06:52.470Z,15.937
2023-03-14T08:10:33.099Z,15.937
2023-03-14T08:14:13.786Z,15.937
2023-03-14T08:17:55.391Z,15.875
2023-03-14T08:21:37.218Z,15.875
2023-03-14T08:25:18.070Z,15.937
2023-03-14T08:29:02.440Z,15.875
2023-03-14T08:32:45.040Z,15.875
2023-03-14T08:36:26.284Z,15.875
2023-03-14T08:40:21.462Z,15.875
2023-03-14T08:44:02.631Z,15.875
2023-03-14T08:47:44.260Z,15.875
2023-03-14T08:51:25.553Z,15.875
2023-03-14T08:55:06.620Z,15.875
2023-03-14T08:58:47.643Z,15.875
2023-03-14T09:03:07.688Z,15.937
2023-03-14T09:06:48.829Z,15.937
2023-03-14T09:10:31.239Z,15.937
2023-03-14T09:14:12.531Z,15.937
2023-03-14T09:17:53.817Z,15.937
2023-03-14T09:21:35.689Z,15.937
2023-03-14T09:25:16.049Z,15.937
2023-03-14T09:28:58.625Z,15.937
2023-03-14T09:32:40.157Z,16.0
2023-03-14T09:36:23.283Z,15.937
2023-03-14T09:40:05.969Z,15.937
2023-03-14T09:43:46.920Z,15.937
2023-03-14T09:47:28.492Z,15.937
2023-03-14T09:51:26.512Z,15.937
2023-03-14T09:55:07.465Z,16.0
2023-03-14T09:58:48.565Z,16.0
2023-03-14T10:03:08.590Z,16.062
2023-03-14T10:06:53.516Z,16.062
2023-03-14T10:10:35.003Z,16.125
2023-03-14T10:14:18.501Z,16.125
2023-03-14T10:17:59.400Z,16.125
2023-03-14T10:21:40.240Z,16.187
2023-03-14T10:25:25.170Z,16.187
2023-03-14T10:29:05.543Z,16.187
2023-03-14T10:32:49.353Z,16.125
2023-03-14T10:36:35.500Z,16.125
2023-03-14T10:40:16.928Z,16.062
2023-03-14T10:43:58.131Z,16.062
2023-03-14T10:47:39.331Z,16.062
2023-03-14T10:51:20.343Z,16.062
2023-03-14T10:55:33.332Z,16.062
2023-03-14T10:59:16.415Z,16.062
2023-03-14T11:03:07.835Z,16.062
2023-03-14T11:06:49.128Z,16.062
2023-03-14T11:10:29.906Z,16.062
2023-03-14T11:14:10.671Z,16.062
2023-03-14T11:17:52.351Z,16.062
2023-03-14T11:21:32.986Z,16.062
2023-03-14T11:25:13.372Z,16.062
2023-03-14T11:28:54.560Z,16.062
2023-03-14T11:32:36.275Z,16.062
2023-03-14T11:36:22.372Z,16.125
2023-03-14T11:40:03.574Z,16.187
2023-03-14T11:43:47.035Z,16.25
2023-03-14T11:47:32.563Z,16.25
2023-03-14T11:51:15.103Z,16.25
2023-03-14T11:54:55.789Z,16.312
2023-03-14T11:58:36.163Z,16.375
2023-03-14T12:03:06.942Z,16.437
2023-03-14T12:06:48.716Z,16.5
2023-03-14T12:10:32.928Z,16.562
2023-03-14T12:14:13.738Z,16.625
2023-03-14T12:17:54.898Z,16.687
2023-03-14T12:21:36.446Z,16.687
2023-03-14T12:25:20.678Z,16.75
2023-03-14T12:29:01.434Z,16.812
2023-03-14T12:32:42.941Z,16.937
2023-03-14T12:36:25.372Z,16.875
2023-03-14T12:40:07.110Z,16.875
2023-03-14T12:43:59.103Z,16.75
2023-03-14T12:47:40.917Z,16.75
2023-03-14T12:51:22.285Z,16.75
2023-03-14T12:55:03.176Z,16.812
2023-03-14T12:58:45.318Z,16.875
2023-03-14T13:03:07.310Z,17.0
2023-03-14T13:07:07.142Z,17.125
2023-03-14T13:10:49.211Z,17.125
2023-03-14T13:14:30.845Z,17.187
2023-03-14T13:18:25.366Z,17.25
2023-03-14T13:22:06.016Z,17.312
2023-03-14T13:25:46.786Z,17.312
2023-03-14T13:29:31.445Z,17.375
2023-03-14T13:33:13.399Z,17.375
2023-03-14T13:36:55.468Z,17.437
2023-03-14T13:40:56.167Z,17.437
2023-03-14T13:44:37.762Z,17.375
2023-03-14T13:48:19.471Z,17.437
2023-03-14T13:52:00.369Z,17.5
2023-03-14T13:55:41.363Z,17.562
2023-03-14T13:59:24.482Z,17.562
2023-03-14T14:03:08.221Z,17.625
2023-03-14T14:06:52.512Z,17.625
2023-03-14T14:10:33.675Z,17.687
2023-03-14T14:14:55.840Z,17.812
2023-03-14T14:18:39.940Z,17.812
2023-03-14T14:22:23.717Z,17.875
2023-03-14T14:26:04.533Z,17.937
2023-03-14T14:29:45.669Z,17.937
2023-03-14T14:33:28.149Z,17.875
2023-03-14T14:37:09.627Z,17.687
2023-03-14T14:40:50.959Z,17.625
2023-03-14T14:44:31.783Z,17.562
2023-03-14T14:48:14.176Z,17.437
2023-03-14T14:51:55.200Z,17.437
2023-03-14T14:55:36.453Z,17.437
2023-03-14T14:59:19.647Z,17.5
2023-03-14T15:03:08.086Z,17.437
2023-03-14T15:06:48.875Z,17.312
2023-03-14T15:10:30.083Z,17.25
2023-03-14T15:14:11.877Z,17.125
2023-03-14T15:17:53.058Z,17.125
2023-03-14T15:21:50.941Z,17.0
2023-03-14T15:25:55.349Z,16.937
2023-03-14T15:29:36.924Z,16.875
2023-03-14T15:33:18.556Z,16.812
2023-03-14T15:37:02.305Z,16.812
2023-03-14T15:40:43.561Z,16.75
2023-03-14T15:44:24.546Z,16.687
2023-03-14T15:48:06.289Z,16.687
2023-03-14T15:51:46.938Z,16.625
2023-03-14T15:55:27.913Z,16.625
2023-03-14T15:59:13.449Z,16.625
2023-03-14T16:03:08.025Z,16.562
2023-03-14T16:06:49.035Z,16.562
2023-03-14T16:10:30.587Z,16.562
2023-03-14T16:14:12.206Z,16.562
2023-03-14T16:17:55.508Z,16.5
2023-03-14T16:21:59.582Z,16.437
2023-03-14T16:25:40.411Z,16.375
2023-03-14T16:29:39.660Z,16.375
2023-03-14T16:33:23.705Z,16.375
2023-03-14T16:37:05.729Z,16.312
2023-03-14T17:03:07.813Z,16.187
2023-03-14T17:08:35.610Z,16.125
2023-03-14T17:12:19.796Z,16.125
2023-03-14T17:16:01.127Z,16.125
2023-03-14T17:19:42.306Z,16.062
2023-03-14T17:23:47.902Z,16.062
2023-03-14T17:27:28.589Z,16.062
2023-03-14T17:31:09.251Z,16.0
2023-03-14T17:34:50.979Z,16.0
2023-03-14T17:38:32.322Z,16.0
2023-03-14T17:42:13.166Z,16.0
2023-03-14T17:45:54.270Z,15.937
2023-03-14T17:49:35.539Z,15.937
2023-03-14T17:53:16.476Z,15.937
2023-03-14T17:56:58.420Z,15.875
2023-03-14T18:03:09.839Z,15.875
2023-03-14T18:06:51.268Z,15.875
2023-03-14T18:10:31.895Z,15.812
2023-03-14T18:14:16.179Z,15.812
2023-03-14T18:17:57.667Z,15.812
2023-03-14T18:21:40.723Z,15.812
2023-03-14T18:25:22.106Z,15.812
2023-03-14T18:29:03.288Z,15.75
2023-03-14T18:32:44.797Z,15.75
2023-03-14T18:36:26.614Z,15.75
2023-03-14T18:40:07.641Z,15.75
2023-03-14T18:43:48.122Z,15.687
2023-03-14T18:47:30.508Z,15.687
2023-03-14T18:51:15.741Z,15.687
2023-03-14T18:54:59.575Z,15.687
2023-03-14T18:58:41.170Z,15.687
2023-03-14T19:03:07.928Z,15.625
2023-03-14T19:06:49.637Z,15.625
2023-03-14T19:10:31.712Z,15.625
2023-03-14T19:14:12.612Z,15.625
2023-03-14T19:17:54.359Z,15.562
2023-03-14T19:21:35.556Z,15.562
2023-03-14T19:25:16.387Z,15.562
2023-03-14T19:28:57.012Z,15.562
2023-03-14T19:32:41.023Z,15.562
2023-03-14T19:36:22.602Z,15.5
2023-03-14T19:40:03.772Z,15.5
2023-03-14T19:43:44.057Z,15.5
2023-03-14T19:47:27.972Z,15.5
2023-03-14T19:51:08.610Z,15.5
2023-03-14T19:54:50.962Z,15.437
2023-03-14T19:58:34.618Z,15.437
2023-03-14T20:03:07.798Z,15.437
2023-03-14T20:06:49.081Z,15.437
2023-03-14T20:10:30.070Z,15.437
2023-03-14T20:14:11.595Z,15.375
2023-03-14T20:17:55.040Z,15.375
2023-03-14T20:21:35.547Z,15.375
2023-03-14T20:25:16.184Z,15.375
2023-03-14T20:28:57.159Z,15.375
2023-03-14T20:32:38.146Z,15.312
2023-03-14T20:36:18.898Z,15.312
2023-03-14T20:40:02.049Z,15.312
2023-03-14T20:43:43.135Z,15.312
2023-03-14T20:47:24.698Z,15.25
2023-03-14T20:51:05.103Z,15.25
2023-03-14T20:54:45.831Z,15.25
2023-03-14T20:58:29.109Z,15.25
2023-03-14T21:03:15.463Z,15.187
2023-03-14T21:06:57.682Z,15.187
2023-03-14T21:10:39.637Z,15.187
2023-03-14T21:14:20.049Z,15.187
2023-03-14T21:18:01.279Z,15.187
2023-03-14T21:21:41.781Z,15.187
2023-03-14T21:25:22.642Z,15.125
2023-03-14T21:29:03.511Z,15.125
2023-03-14T21:32:44.675Z,15.125
2023-03-14T21:36:25.985Z,15.125
2023-03-14T21:40:06.648Z,15.062
2023-03-14T21:43:47.261Z,15.062
2023-03-14T21:47:30.998Z,15.062
2023-03-14T21:51:11.435Z,15.062
2023-03-14T21:54:51.734Z,15.062
2023-03-14T21:58:32.248Z,15.0
2023-03-14T22:03:32.759Z,15.0
2023-03-14T22:07:13.756Z,15.0
2023-03-14T22:10:56.171Z,15.0
2023-03-14T22:14:36.883Z,15.0
2023-03-14T22:18:18.704Z,15.0
2023-03-14T22:21:58.927Z,15.0
2023-03-14T22:25:39.605Z,15.125
2023-03-14T22:29:20.323Z,15.312
2023-03-14T22:33:02.298Z,15.375
2023-03-14T22:36:42.905Z,15.437
2023-03-14T22:40:25.228Z,15.437
2023-03-14T22:44:05.773Z,15.437
2023-03-14T22:47:46.637Z,15.375
2023-03-14T22:51:27.067Z,15.375
2023-03-14T22:55:09.829Z,15.312
2023-03-14T22:58:51.111Z,15.312
2023-03-14T23:03:08.138Z,15.312
2023-03-14T23:06:49.388Z,15.25
2023-03-14T23:10:30.240Z,15.25
2023-03-14T23:14:14.325Z,15.187
2023-03-14T23:18:10.263Z,15.187
2023-03-14T23:21:50.680Z,15.125
2023-03-14T23:25:33.762Z,15.125
2023-03-14T23:29:28.503Z,15.125
2023-03-14T23:33:10.489Z,15.062
2023-03-14T23:36:51.121Z,15.0
2023-03-14T23:40:33.627Z,15.0
2023-03-14T23:44:14.569Z,15.0
2023-03-14T23:47:55.300Z,14.937
2023-03-14T23:51:36.412Z,14.937
2023-03-14T23:55:17.274Z,15.062
2023-03-14T23:58:58.248Z,15.25
